sensor_id;sensor_type;location;lat;lon;timestamp;P1;durP1;ratioP1;P2;durP2;ratioP2
66521;SDS011;53349;53.538;8.584;2023-11-21T00:00:46;10.33;;;4.40;;
66521;SDS011;53349;53.538;8.584;2023-11-21T00:03:11;10.83;;;4.67;;
66521;SDS011;53349;53.538;8.584;2023-11-21T00:05:37;16.17;;;4.27;;
66521;SDS011;53349;53.538;8.584;2023-11-21T00:08:09;14.35;;;4.50;;
66521;SDS011;53349;53.538;8.584;2023-11-21T00:10:37;11.75;;;4.47;;
66521;SDS011;53349;53.538;8.584;2023-11-21T00:13:04;12.18;;;4.43;;
66521;SDS011;53349;53.538;8.584;2023-11-21T00:15:30;12.67;;;4.77;;
66521;SDS011;53349;53.538;8.584;2023-11-21T00:17:55;15.77;;;5.63;;
66521;SDS011;53349;53.538;8.584;2023-11-21T00:20:20;14.63;;;5.83;;
66521;SDS011;53349;53.538;8.584;2023-11-21T00:22:47;16.35;;;5.28;;
66521;SDS011;53349;53.538;8.584;2023-11-21T00:25:14;16.30;;;5.97;;
66521;SDS011;53349;53.538;8.584;2023-11-21T00:27:39;21.95;;;6.18;;
66521;SDS011;53349;53.538;8.584;2023-11-21T00:30:06;20.75;;;6.30;;
66521;SDS011;53349;53.538;8.584;2023-11-21T00:32:32;21.37;;;6.87;;
66521;SDS011;53349;53.538;8.584;2023-11-21T00:34:58;22.88;;;6.35;;
66521;SDS011;53349;53.538;8.584;2023-11-21T00:37:24;22.73;;;6.57;;
66521;SDS011;53349;53.538;8.584;2023-11-21T00:39:50;18.75;;;6.40;;
66521;SDS011;53349;53.538;8.584;2023-11-21T00:42:15;20.57;;;7.00;;
66521;SDS011;53349;53.538;8.584;2023-11-21T00:44:42;18.80;;;6.63;;
66521;SDS011;53349;53.538;8.584;2023-11-21T00:47:09;18.90;;;7.15;;
66521;SDS011;53349;53.538;8.584;2023-11-21T00:49:34;21.85;;;7.40;;
66521;SDS011;53349;53.538;8.584;2023-11-21T00:51:59;22.17;;;7.53;;
66521;SDS011;53349;53.538;8.584;2023-11-21T00:54:26;23.48;;;7.85;;
66521;SDS011;53349;53.538;8.584;2023-11-21T00:56:54;25.55;;;8.57;;
66521;SDS011;53349;53.538;8.584;2023-11-21T00:59:21;25.57;;;8.63;;
66521;SDS011;53349;53.538;8.584;2023-11-21T01:01:49;28.70;;;8.90;;
66521;SDS011;53349;53.538;8.584;2023-11-21T01:04:14;26.58;;;8.13;;
66521;SDS011;53349;53.538;8.584;2023-11-21T01:06:42;26.63;;;8.80;;
66521;SDS011;53349;53.538;8.584;2023-11-21T01:09:08;25.90;;;8.63;;
66521;SDS011;53349;53.538;8.584;2023-11-21T01:11:35;28.07;;;8.70;;
66521;SDS011;53349;53.538;8.584;2023-11-21T01:14:00;25.45;;;8.35;;
66521;SDS011;53349;53.538;8.584;2023-11-21T01:16:27;23.87;;;8.37;;
66521;SDS011;53349;53.538;8.584;2023-11-21T01:18:54;23.73;;;8.27;;
66521;SDS011;53349;53.538;8.584;2023-11-21T01:21:19;23.63;;;8.47;;
66521;SDS011;53349;53.538;8.584;2023-11-21T01:23:47;20.45;;;7.72;;
66521;SDS011;53349;53.538;8.584;2023-11-21T01:26:18;24.90;;;7.88;;
66521;SDS011;53349;53.538;8.584;2023-11-21T01:28:44;21.80;;;6.75;;
66521;SDS011;53349;53.538;8.584;2023-11-21T01:31:10;22.70;;;7.57;;
66521;SDS011;53349;53.538;8.584;2023-11-21T01:33:35;19.37;;;6.60;;
66521;SDS011;53349;53.538;8.584;2023-11-21T01:36:00;19.60;;;7.30;;
66521;SDS011;53349;53.538;8.584;2023-11-21T01:38:27;22.17;;;7.28;;
66521;SDS011;53349;53.538;8.584;2023-11-21T01:40:52;21.25;;;8.15;;
66521;SDS011;53349;53.538;8.584;2023-11-21T01:43:18;21.20;;;8.03;;
66521;SDS011;53349;53.538;8.584;2023-11-21T01:45:43;24.40;;;8.15;;
66521;SDS011;53349;53.538;8.584;2023-11-21T01:48:09;20.23;;;7.18;;
66521;SDS011;53349;53.538;8.584;2023-11-21T01:50:35;22.95;;;8.02;;
66521;SDS011;53349;53.538;8.584;2023-11-21T01:53:01;23.63;;;8.43;;
66521;SDS011;53349;53.538;8.584;2023-11-21T01:55:28;21.60;;;8.23;;
66521;SDS011;53349;53.538;8.584;2023-11-21T01:57:54;25.73;;;8.45;;
66521;SDS011;53349;53.538;8.584;2023-11-21T02:00:20;22.13;;;8.57;;
66521;SDS011;53349;53.538;8.584;2023-11-21T02:02:46;24.00;;;8.32;;
66521;SDS011;53349;53.538;8.584;2023-11-21T02:05:17;21.70;;;8.27;;
66521;SDS011;53349;53.538;8.584;2023-11-21T02:07:46;24.60;;;8.50;;
66521;SDS011;53349;53.538;8.584;2023-11-21T02:10:12;21.42;;;7.55;;
66521;SDS011;53349;53.538;8.584;2023-11-21T02:12:37;22.70;;;8.27;;
66521;SDS011;53349;53.538;8.584;2023-11-21T02:15:03;25.47;;;8.37;;
66521;SDS011;53349;53.538;8.584;2023-11-21T02:17:29;21.35;;;8.63;;
66521;SDS011;53349;53.538;8.584;2023-11-21T02:19:55;20.93;;;8.23;;
66521;SDS011;53349;53.538;8.584;2023-11-21T02:22:22;18.52;;;7.78;;
66521;SDS011;53349;53.538;8.584;2023-11-21T02:24:50;20.98;;;8.20;;
66521;SDS011;53349;53.538;8.584;2023-11-21T02:27:18;21.60;;;7.88;;
66521;SDS011;53349;53.538;8.584;2023-11-21T02:29:44;19.83;;;8.53;;
66521;SDS011;53349;53.538;8.584;2023-11-21T02:32:09;21.90;;;8.10;;
66521;SDS011;53349;53.538;8.584;2023-11-21T02:34:34;16.33;;;7.30;;
66521;SDS011;53349;53.538;8.584;2023-11-21T02:37:01;20.20;;;8.10;;
66521;SDS011;53349;53.538;8.584;2023-11-21T02:39:48;19.60;;;7.80;;
66521;SDS011;53349;53.538;8.584;2023-11-21T02:42:14;18.65;;;8.23;;
66521;SDS011;53349;53.538;8.584;2023-11-21T02:44:40;20.27;;;8.87;;
66521;SDS011;53349;53.538;8.584;2023-11-21T02:47:05;20.23;;;8.77;;
66521;SDS011;53349;53.538;8.584;2023-11-21T02:49:31;20.73;;;9.02;;
66521;SDS011;53349;53.538;8.584;2023-11-21T02:51:57;20.58;;;9.02;;
66521;SDS011;53349;53.538;8.584;2023-11-21T02:54:23;22.20;;;9.05;;
66521;SDS011;53349;53.538;8.584;2023-11-21T02:56:50;22.40;;;9.75;;
66521;SDS011;53349;53.538;8.584;2023-11-21T02:59:15;19.97;;;8.97;;
66521;SDS011;53349;53.538;8.584;2023-11-21T03:01:43;19.05;;;8.73;;
66521;SDS011;53349;53.538;8.584;2023-11-21T03:04:10;20.02;;;8.90;;
66521;SDS011;53349;53.538;8.584;2023-11-21T03:06:35;17.53;;;8.27;;
66521;SDS011;53349;53.538;8.584;2023-11-21T03:09:00;22.47;;;9.20;;
66521;SDS011;53349;53.538;8.584;2023-11-21T03:11:26;19.77;;;8.87;;
66521;SDS011;53349;53.538;8.584;2023-11-21T03:13:52;20.42;;;9.05;;
66521;SDS011;53349;53.538;8.584;2023-11-21T03:16:18;21.77;;;9.50;;
66521;SDS011;53349;53.538;8.584;2023-11-21T03:18:43;22.40;;;9.52;;
66521;SDS011;53349;53.538;8.584;2023-11-21T03:21:10;20.13;;;9.27;;
66521;SDS011;53349;53.538;8.584;2023-11-21T03:23:37;21.77;;;9.05;;
66521;SDS011;53349;53.538;8.584;2023-11-21T03:26:04;20.60;;;8.88;;
66521;SDS011;53349;53.538;8.584;2023-11-21T03:28:29;22.43;;;10.17;;
66521;SDS011;53349;53.538;8.584;2023-11-21T03:30:55;18.10;;;8.63;;
66521;SDS011;53349;53.538;8.584;2023-11-21T03:33:23;19.80;;;8.10;;
66521;SDS011;53349;53.538;8.584;2023-11-21T03:35:49;18.95;;;7.93;;
66521;SDS011;53349;53.538;8.584;2023-11-21T03:38:14;15.87;;;7.57;;
66521;SDS011;53349;53.538;8.584;2023-11-21T03:40:40;17.23;;;7.32;;
66521;SDS011;53349;53.538;8.584;2023-11-21T03:43:10;16.98;;;7.63;;
66521;SDS011;53349;53.538;8.584;2023-11-21T03:45:38;16.95;;;8.13;;
66521;SDS011;53349;53.538;8.584;2023-11-21T03:48:04;17.53;;;8.53;;
66521;SDS011;53349;53.538;8.584;2023-11-21T03:50:29;18.47;;;8.80;;
66521;SDS011;53349;53.538;8.584;2023-11-21T03:52:56;17.35;;;7.70;;
66521;SDS011;53349;53.538;8.584;2023-11-21T03:55:21;14.30;;;6.63;;
66521;SDS011;53349;53.538;8.584;2023-11-21T03:57:52;17.17;;;7.63;;
66521;SDS011;53349;53.538;8.584;2023-11-21T04:00:17;15.80;;;7.05;;
66521;SDS011;53349;53.538;8.584;2023-11-21T04:02:44;14.50;;;6.90;;
66521;SDS011;53349;53.538;8.584;2023-11-21T04:05:10;13.60;;;6.05;;
66521;SDS011;53349;53.538;8.584;2023-11-21T04:07:38;14.95;;;6.53;;
66521;SDS011;53349;53.538;8.584;2023-11-21T04:10:08;19.40;;;7.53;;
66521;SDS011;53349;53.538;8.584;2023-11-21T04:12:35;15.35;;;6.90;;
66521;SDS011;53349;53.538;8.584;2023-11-21T04:15:01;16.00;;;6.80;;
66521;SDS011;53349;53.538;8.584;2023-11-21T04:17:28;16.48;;;7.38;;
66521;SDS011;53349;53.538;8.584;2023-11-21T04:19:53;16.45;;;7.30;;
66521;SDS011;53349;53.538;8.584;2023-11-21T04:22:21;16.30;;;7.50;;
66521;SDS011;53349;53.538;8.584;2023-11-21T04:24:47;15.07;;;6.55;;
66521;SDS011;53349;53.538;8.584;2023-11-21T04:27:12;17.00;;;7.25;;
66521;SDS011;53349;53.538;8.584;2023-11-21T04:29:38;17.70;;;7.67;;
66521;SDS011;53349;53.538;8.584;2023-11-21T04:32:03;21.10;;;8.97;;
66521;SDS011;53349;53.538;8.584;2023-11-21T04:34:29;18.33;;;8.02;;
66521;SDS011;53349;53.538;8.584;2023-11-21T04:36:54;17.67;;;7.30;;
66521;SDS011;53349;53.538;8.584;2023-11-21T04:39:19;17.50;;;7.40;;
66521;SDS011;53349;53.538;8.584;2023-11-21T04:41:45;17.93;;;7.43;;
66521;SDS011;53349;53.538;8.584;2023-11-21T04:44:10;15.02;;;6.75;;
66521;SDS011;53349;53.538;8.584;2023-11-21T04:46:36;18.45;;;6.97;;
66521;SDS011;53349;53.538;8.584;2023-11-21T04:49:02;16.97;;;6.20;;
66521;SDS011;53349;53.538;8.584;2023-11-21T04:51:28;17.73;;;7.17;;
66521;SDS011;53349;53.538;8.584;2023-11-21T04:53:53;15.77;;;6.68;;
66521;SDS011;53349;53.538;8.584;2023-11-21T04:56:19;16.10;;;6.33;;
66521;SDS011;53349;53.538;8.584;2023-11-21T04:58:46;16.30;;;6.70;;
66521;SDS011;53349;53.538;8.584;2023-11-21T05:01:12;16.43;;;6.70;;
66521;SDS011;53349;53.538;8.584;2023-11-21T05:03:37;14.77;;;6.40;;
66521;SDS011;53349;53.538;8.584;2023-11-21T05:06:02;13.98;;;5.80;;
66521;SDS011;53349;53.538;8.584;2023-11-21T05:08:28;17.00;;;6.85;;
66521;SDS011;53349;53.538;8.584;2023-11-21T05:10:53;16.50;;;6.20;;
66521;SDS011;53349;53.538;8.584;2023-11-21T05:13:21;16.13;;;6.63;;
66521;SDS011;53349;53.538;8.584;2023-11-21T05:15:47;13.95;;;6.25;;
66521;SDS011;53349;53.538;8.584;2023-11-21T05:18:12;14.13;;;6.80;;
66521;SDS011;53349;53.538;8.584;2023-11-21T05:20:37;13.37;;;5.90;;
66521;SDS011;53349;53.538;8.584;2023-11-21T05:23:03;13.48;;;5.60;;
66521;SDS011;53349;53.538;8.584;2023-11-21T05:25:29;12.37;;;5.87;;
66521;SDS011;53349;53.538;8.584;2023-11-21T05:27:55;14.93;;;5.88;;
66521;SDS011;53349;53.538;8.584;2023-11-21T05:30:21;13.47;;;5.33;;
66521;SDS011;53349;53.538;8.584;2023-11-21T05:32:47;13.45;;;5.90;;
66521;SDS011;53349;53.538;8.584;2023-11-21T05:35:12;12.87;;;5.80;;
66521;SDS011;53349;53.538;8.584;2023-11-21T05:37:39;12.95;;;5.60;;
66521;SDS011;53349;53.538;8.584;2023-11-21T05:40:05;12.70;;;5.23;;
66521;SDS011;53349;53.538;8.584;2023-11-21T05:42:34;11.90;;;5.40;;
66521;SDS011;53349;53.538;8.584;2023-11-21T05:45:00;15.67;;;6.87;;
66521;SDS011;53349;53.538;8.584;2023-11-21T05:47:27;12.98;;;5.85;;
66521;SDS011;53349;53.538;8.584;2023-11-21T05:49:52;13.68;;;6.05;;
66521;SDS011;53349;53.538;8.584;2023-11-21T05:52:20;13.15;;;5.65;;
66521;SDS011;53349;53.538;8.584;2023-11-21T05:54:49;12.97;;;5.70;;
66521;SDS011;53349;53.538;8.584;2023-11-21T05:57:14;14.75;;;5.43;;
66521;SDS011;53349;53.538;8.584;2023-11-21T05:59:41;13.05;;;5.90;;
66521;SDS011;53349;53.538;8.584;2023-11-21T06:02:09;13.83;;;5.90;;
66521;SDS011;53349;53.538;8.584;2023-11-21T06:04:34;14.65;;;6.00;;
66521;SDS011;53349;53.538;8.584;2023-11-21T06:07:00;13.93;;;5.67;;
66521;SDS011;53349;53.538;8.584;2023-11-21T06:09:25;14.43;;;5.68;;
66521;SDS011;53349;53.538;8.584;2023-11-21T06:11:50;15.63;;;6.75;;
66521;SDS011;53349;53.538;8.584;2023-11-21T06:14:16;15.50;;;6.70;;
66521;SDS011;53349;53.538;8.584;2023-11-21T06:16:41;17.00;;;7.47;;
66521;SDS011;53349;53.538;8.584;2023-11-21T06:19:06;14.57;;;6.33;;
66521;SDS011;53349;53.538;8.584;2023-11-21T06:21:32;14.13;;;6.13;;
66521;SDS011;53349;53.538;8.584;2023-11-21T06:23:57;13.27;;;5.87;;
66521;SDS011;53349;53.538;8.584;2023-11-21T06:26:25;13.98;;;6.15;;
66521;SDS011;53349;53.538;8.584;2023-11-21T06:28:54;14.87;;;6.23;;
66521;SDS011;53349;53.538;8.584;2023-11-21T06:31:21;13.65;;;5.95;;
66521;SDS011;53349;53.538;8.584;2023-11-21T06:33:46;15.15;;;6.55;;
66521;SDS011;53349;53.538;8.584;2023-11-21T06:36:16;17.75;;;6.40;;
66521;SDS011;53349;53.538;8.584;2023-11-21T06:38:41;14.67;;;6.37;;
66521;SDS011;53349;53.538;8.584;2023-11-21T06:41:08;15.30;;;6.55;;
66521;SDS011;53349;53.538;8.584;2023-11-21T06:43:34;14.67;;;6.30;;
66521;SDS011;53349;53.538;8.584;2023-11-21T06:46:00;14.30;;;6.10;;
66521;SDS011;53349;53.538;8.584;2023-11-21T06:48:28;15.18;;;6.50;;
66521;SDS011;53349;53.538;8.584;2023-11-21T06:50:53;13.17;;;5.87;;
66521;SDS011;53349;53.538;8.584;2023-11-21T06:53:18;13.33;;;6.10;;
66521;SDS011;53349;53.538;8.584;2023-11-21T06:55:44;14.30;;;6.50;;
66521;SDS011;53349;53.538;8.584;2023-11-21T06:58:10;13.38;;;5.88;;
66521;SDS011;53349;53.538;8.584;2023-11-21T07:00:35;14.00;;;6.27;;
66521;SDS011;53349;53.538;8.584;2023-11-21T07:03:02;13.30;;;6.10;;
66521;SDS011;53349;53.538;8.584;2023-11-21T07:05:32;15.33;;;6.27;;
66521;SDS011;53349;53.538;8.584;2023-11-21T07:07:57;14.18;;;6.03;;
66521;SDS011;53349;53.538;8.584;2023-11-21T07:10:26;15.93;;;6.82;;
66521;SDS011;53349;53.538;8.584;2023-11-21T07:12:52;14.80;;;6.60;;
66521;SDS011;53349;53.538;8.584;2023-11-21T07:15:17;14.63;;;6.03;;
66521;SDS011;53349;53.538;8.584;2023-11-21T07:17:43;18.15;;;7.90;;
66521;SDS011;53349;53.538;8.584;2023-11-21T07:20:09;20.63;;;7.83;;
66521;SDS011;53349;53.538;8.584;2023-11-21T07:22:36;50.50;;;17.58;;
66521;SDS011;53349;53.538;8.584;2023-11-21T07:25:04;37.15;;;13.85;;
66521;SDS011;53349;53.538;8.584;2023-11-21T07:27:30;20.25;;;8.00;;
66521;SDS011;53349;53.538;8.584;2023-11-21T07:29:56;16.93;;;7.43;;
66521;SDS011;53349;53.538;8.584;2023-11-21T07:32:21;17.27;;;7.53;;
66521;SDS011;53349;53.538;8.584;2023-11-21T07:34:48;13.48;;;6.05;;
66521;SDS011;53349;53.538;8.584;2023-11-21T07:37:14;15.80;;;7.03;;
66521;SDS011;53349;53.538;8.584;2023-11-21T07:39:39;14.60;;;6.90;;
66521;SDS011;53349;53.538;8.584;2023-11-21T07:42:04;15.57;;;6.23;;
66521;SDS011;53349;53.538;8.584;2023-11-21T07:44:30;19.63;;;8.88;;
66521;SDS011;53349;53.538;8.584;2023-11-21T07:46:56;16.73;;;6.87;;
66521;SDS011;53349;53.538;8.584;2023-11-21T07:49:24;17.65;;;7.40;;
66521;SDS011;53349;53.538;8.584;2023-11-21T07:51:49;17.30;;;7.30;;
66521;SDS011;53349;53.538;8.584;2023-11-21T07:54:18;15.57;;;6.78;;
66521;SDS011;53349;53.538;8.584;2023-11-21T07:56:47;17.02;;;7.03;;
66521;SDS011;53349;53.538;8.584;2023-11-21T07:59:15;18.52;;;7.60;;
66521;SDS011;53349;53.538;8.584;2023-11-21T08:01:40;16.37;;;6.87;;
66521;SDS011;53349;53.538;8.584;2023-11-21T08:04:08;17.55;;;7.20;;
66521;SDS011;53349;53.538;8.584;2023-11-21T08:06:34;18.35;;;7.80;;
66521;SDS011;53349;53.538;8.584;2023-11-21T08:09:00;17.48;;;7.38;;
66521;SDS011;53349;53.538;8.584;2023-11-21T08:11:25;17.10;;;7.80;;
66521;SDS011;53349;53.538;8.584;2023-11-21T08:13:56;18.17;;;7.82;;
66521;SDS011;53349;53.538;8.584;2023-11-21T08:16:22;21.85;;;8.00;;
66521;SDS011;53349;53.538;8.584;2023-11-21T08:18:52;19.20;;;7.53;;
66521;SDS011;53349;53.538;8.584;2023-11-21T08:21:17;17.45;;;7.78;;
66521;SDS011;53349;53.538;8.584;2023-11-21T08:23:46;19.80;;;8.35;;
66521;SDS011;53349;53.538;8.584;2023-11-21T08:26:11;16.43;;;6.97;;
66521;SDS011;53349;53.538;8.584;2023-11-21T08:28:37;15.63;;;7.22;;
66521;SDS011;53349;53.538;8.584;2023-11-21T08:31:02;16.70;;;7.67;;
66521;SDS011;53349;53.538;8.584;2023-11-21T08:33:29;21.17;;;8.43;;
66521;SDS011;53349;53.538;8.584;2023-11-21T08:35:54;18.20;;;7.90;;
66521;SDS011;53349;53.538;8.584;2023-11-21T08:38:20;18.73;;;7.93;;
66521;SDS011;53349;53.538;8.584;2023-11-21T08:40:49;18.63;;;7.90;;
66521;SDS011;53349;53.538;8.584;2023-11-21T08:43:14;20.17;;;7.20;;
66521;SDS011;53349;53.538;8.584;2023-11-21T08:45:39;17.53;;;7.37;;
66521;SDS011;53349;53.538;8.584;2023-11-21T08:48:06;21.95;;;7.93;;
66521;SDS011;53349;53.538;8.584;2023-11-21T08:50:32;19.15;;;7.72;;
66521;SDS011;53349;53.538;8.584;2023-11-21T08:52:57;19.37;;;7.63;;
66521;SDS011;53349;53.538;8.584;2023-11-21T08:55:23;17.77;;;7.80;;
66521;SDS011;53349;53.538;8.584;2023-11-21T08:57:48;18.10;;;7.53;;
66521;SDS011;53349;53.538;8.584;2023-11-21T09:00:14;16.85;;;7.50;;
66521;SDS011;53349;53.538;8.584;2023-11-21T09:02:40;16.30;;;7.73;;
66521;SDS011;53349;53.538;8.584;2023-11-21T09:05:08;20.50;;;7.50;;
66521;SDS011;53349;53.538;8.584;2023-11-21T09:07:36;18.27;;;6.68;;
66521;SDS011;53349;53.538;8.584;2023-11-21T09:10:04;14.98;;;6.82;;
66521;SDS011;53349;53.538;8.584;2023-11-21T09:12:31;16.93;;;6.77;;
66521;SDS011;53349;53.538;8.584;2023-11-21T09:14:57;15.52;;;7.00;;
66521;SDS011;53349;53.538;8.584;2023-11-21T09:17:22;16.83;;;7.37;;
66521;SDS011;53349;53.538;8.584;2023-11-21T09:19:47;15.97;;;6.33;;
66521;SDS011;53349;53.538;8.584;2023-11-21T09:22:15;16.52;;;6.47;;
66521;SDS011;53349;53.538;8.584;2023-11-21T09:24:42;14.77;;;6.57;;
66521;SDS011;53349;53.538;8.584;2023-11-21T09:27:07;13.55;;;6.25;;
66521;SDS011;53349;53.538;8.584;2023-11-21T09:29:33;15.93;;;6.47;;
66521;SDS011;53349;53.538;8.584;2023-11-21T09:31:59;14.23;;;5.88;;
66521;SDS011;53349;53.538;8.584;2023-11-21T09:34:25;11.80;;;5.47;;
66521;SDS011;53349;53.538;8.584;2023-11-21T09:36:52;14.55;;;6.25;;
66521;SDS011;53349;53.538;8.584;2023-11-21T09:39:17;13.02;;;5.40;;
66521;SDS011;53349;53.538;8.584;2023-11-21T09:44:22;11.18;;;5.03;;
66521;SDS011;53349;53.538;8.584;2023-11-21T09:47:02;13.10;;;4.83;;
66521;SDS011;53349;53.538;8.584;2023-11-21T09:49:27;13.15;;;5.25;;
66521;SDS011;53349;53.538;8.584;2023-11-21T09:51:54;11.93;;;5.25;;
66521;SDS011;53349;53.538;8.584;2023-11-21T09:54:20;11.73;;;5.33;;
66521;SDS011;53349;53.538;8.584;2023-11-21T09:56:47;12.25;;;5.20;;
66521;SDS011;53349;53.538;8.584;2023-11-21T09:59:15;15.25;;;5.13;;
66521;SDS011;53349;53.538;8.584;2023-11-21T10:01:42;9.18;;;4.20;;
66521;SDS011;53349;53.538;8.584;2023-11-21T10:04:08;12.18;;;4.57;;
66521;SDS011;53349;53.538;8.584;2023-11-21T10:06:34;9.73;;;4.33;;
66521;SDS011;53349;53.538;8.584;2023-11-21T10:08:59;11.15;;;4.50;;
66521;SDS011;53349;53.538;8.584;2023-11-21T10:11:25;11.60;;;4.87;;
66521;SDS011;53349;53.538;8.584;2023-11-21T10:13:55;9.35;;;4.80;;
66521;SDS011;53349;53.538;8.584;2023-11-21T10:16:23;10.40;;;4.77;;
66521;SDS011;53349;53.538;8.584;2023-11-21T10:18:52;11.35;;;4.63;;
66521;SDS011;53349;53.538;8.584;2023-11-21T10:21:18;9.55;;;4.20;;
66521;SDS011;53349;53.538;8.584;2023-11-21T10:23:43;13.10;;;4.67;;
66521;SDS011;53349;53.538;8.584;2023-11-21T10:26:10;10.60;;;4.55;;
66521;SDS011;53349;53.538;8.584;2023-11-21T10:28:37;11.55;;;4.78;;
66521;SDS011;53349;53.538;8.584;2023-11-21T10:31:06;9.90;;;4.83;;
66521;SDS011;53349;53.538;8.584;2023-11-21T10:33:33;11.70;;;4.95;;
66521;SDS011;53349;53.538;8.584;2023-11-21T10:35:58;9.80;;;5.10;;
66521;SDS011;53349;53.538;8.584;2023-11-21T10:38:23;11.10;;;5.20;;
66521;SDS011;53349;53.538;8.584;2023-11-21T10:40:49;11.87;;;5.30;;
66521;SDS011;53349;53.538;8.584;2023-11-21T10:43:17;13.30;;;4.93;;
66521;SDS011;53349;53.538;8.584;2023-11-21T10:45:44;10.60;;;4.88;;
66521;SDS011;53349;53.538;8.584;2023-11-21T10:48:10;9.93;;;4.77;;
66521;SDS011;53349;53.538;8.584;2023-11-21T10:50:38;11.82;;;4.80;;
66521;SDS011;53349;53.538;8.584;2023-11-21T10:53:07;8.90;;;4.78;;
66521;SDS011;53349;53.538;8.584;2023-11-21T10:55:35;11.13;;;5.00;;
66521;SDS011;53349;53.538;8.584;2023-11-21T10:58:02;10.60;;;4.90;;
66521;SDS011;53349;53.538;8.584;2023-11-21T11:00:28;10.27;;;4.70;;
66521;SDS011;53349;53.538;8.584;2023-11-21T11:02:58;10.67;;;4.73;;
66521;SDS011;53349;53.538;8.584;2023-11-21T11:05:25;10.70;;;4.50;;
66521;SDS011;53349;53.538;8.584;2023-11-21T11:07:52;8.82;;;4.10;;
66521;SDS011;53349;53.538;8.584;2023-11-21T11:10:24;12.65;;;4.72;;
66521;SDS011;53349;53.538;8.584;2023-11-21T11:12:56;7.78;;;4.00;;
66521;SDS011;53349;53.538;8.584;2023-11-21T11:15:24;8.47;;;4.10;;
66521;SDS011;53349;53.538;8.584;2023-11-21T11:17:50;9.23;;;3.88;;
66521;SDS011;53349;53.538;8.584;2023-11-21T11:20:17;8.40;;;4.07;;
66521;SDS011;53349;53.538;8.584;2023-11-21T11:28:51;9.80;;;4.20;;
66521;SDS011;53349;53.538;8.584;2023-11-21T11:31:50;9.15;;;4.05;;
66521;SDS011;53349;53.538;8.584;2023-11-21T11:34:55;9.02;;;4.00;;
66521;SDS011;53349;53.538;8.584;2023-11-21T11:37:27;7.93;;;3.70;;
66521;SDS011;53349;53.538;8.584;2023-11-21T11:39:54;9.02;;;4.00;;
66521;SDS011;53349;53.538;8.584;2023-11-21T11:42:21;7.63;;;4.00;;
66521;SDS011;53349;53.538;8.584;2023-11-21T11:44:47;9.10;;;4.13;;
66521;SDS011;53349;53.538;8.584;2023-11-21T11:47:20;9.80;;;4.35;;
66521;SDS011;53349;53.538;8.584;2023-11-21T11:49:56;10.63;;;4.60;;
66521;SDS011;53349;53.538;8.584;2023-11-21T11:52:31;10.40;;;4.03;;
66521;SDS011;53349;53.538;8.584;2023-11-21T11:55:03;9.20;;;4.87;;
66521;SDS011;53349;53.538;8.584;2023-11-21T11:57:30;10.90;;;4.70;;
66521;SDS011;53349;53.538;8.584;2023-11-21T12:00:10;7.85;;;3.90;;
66521;SDS011;53349;53.538;8.584;2023-11-21T12:02:37;8.18;;;4.28;;
66521;SDS011;53349;53.538;8.584;2023-11-21T12:05:08;10.73;;;4.82;;
66521;SDS011;53349;53.538;8.584;2023-11-21T12:07:50;8.23;;;4.27;;
66521;SDS011;53349;53.538;8.584;2023-11-21T12:10:23;7.70;;;4.38;;
66521;SDS011;53349;53.538;8.584;2023-11-21T12:12:56;11.07;;;5.10;;
66521;SDS011;53349;53.538;8.584;2023-11-21T12:15:25;7.35;;;4.20;;
66521;SDS011;53349;53.538;8.584;2023-11-21T12:17:52;10.20;;;4.25;;
66521;SDS011;53349;53.538;8.584;2023-11-21T12:20:18;8.50;;;4.47;;
66521;SDS011;53349;53.538;8.584;2023-11-21T12:22:52;7.13;;;4.10;;
66521;SDS011;53349;53.538;8.584;2023-11-21T12:25:24;7.03;;;3.67;;
66521;SDS011;53349;53.538;8.584;2023-11-21T12:27:51;8.60;;;4.38;;
66521;SDS011;53349;53.538;8.584;2023-11-21T12:30:19;7.20;;;3.85;;
66521;SDS011;53349;53.538;8.584;2023-11-21T12:32:48;8.32;;;4.40;;
66521;SDS011;53349;53.538;8.584;2023-11-21T12:35:17;13.18;;;5.22;;
66521;SDS011;53349;53.538;8.584;2023-11-21T12:37:45;10.17;;;4.93;;
66521;SDS011;53349;53.538;8.584;2023-11-21T12:40:11;10.25;;;4.18;;
66521;SDS011;53349;53.538;8.584;2023-11-21T12:42:39;9.45;;;4.55;;
66521;SDS011;53349;53.538;8.584;2023-11-21T12:47:56;12.63;;;4.65;;
66521;SDS011;53349;53.538;8.584;2023-11-21T12:50:25;10.27;;;4.40;;
66521;SDS011;53349;53.538;8.584;2023-11-21T12:52:58;8.88;;;4.38;;
66521;SDS011;53349;53.538;8.584;2023-11-21T12:55:25;8.43;;;4.40;;
66521;SDS011;53349;53.538;8.584;2023-11-21T13:00:27;9.60;;;4.15;;
66521;SDS011;53349;53.538;8.584;2023-11-21T13:02:57;8.52;;;4.20;;
66521;SDS011;53349;53.538;8.584;2023-11-21T13:05:24;7.97;;;3.88;;
66521;SDS011;53349;53.538;8.584;2023-11-21T13:07:51;8.50;;;4.15;;
66521;SDS011;53349;53.538;8.584;2023-11-21T13:10:16;9.27;;;4.07;;
66521;SDS011;53349;53.538;8.584;2023-11-21T13:12:44;8.80;;;4.00;;
66521;SDS011;53349;53.538;8.584;2023-11-21T13:15:13;7.40;;;3.38;;
66521;SDS011;53349;53.538;8.584;2023-11-21T13:17:40;7.47;;;3.88;;
66521;SDS011;53349;53.538;8.584;2023-11-21T13:20:09;7.85;;;3.60;;
66521;SDS011;53349;53.538;8.584;2023-11-21T13:22:36;7.27;;;3.37;;
66521;SDS011;53349;53.538;8.584;2023-11-21T13:25:01;8.57;;;3.25;;
66521;SDS011;53349;53.538;8.584;2023-11-21T13:27:34;7.03;;;3.53;;
66521;SDS011;53349;53.538;8.584;2023-11-21T13:30:00;7.32;;;3.72;;
66521;SDS011;53349;53.538;8.584;2023-11-21T13:32:27;7.40;;;3.73;;
66521;SDS011;53349;53.538;8.584;2023-11-21T13:34:52;6.65;;;3.80;;
66521;SDS011;53349;53.538;8.584;2023-11-21T13:37:26;6.33;;;3.23;;
66521;SDS011;53349;53.538;8.584;2023-11-21T13:39:51;7.00;;;3.33;;
66521;SDS011;53349;53.538;8.584;2023-11-21T13:42:16;7.07;;;3.60;;
66521;SDS011;53349;53.538;8.584;2023-11-21T13:44:43;7.63;;;3.47;;
66521;SDS011;53349;53.538;8.584;2023-11-21T13:47:08;8.27;;;3.67;;
66521;SDS011;53349;53.538;8.584;2023-11-21T13:49:34;7.03;;;3.73;;
66521;SDS011;53349;53.538;8.584;2023-11-21T13:52:00;7.57;;;3.43;;
66521;SDS011;53349;53.538;8.584;2023-11-21T13:54:27;7.00;;;3.25;;
66521;SDS011;53349;53.538;8.584;2023-11-21T13:56:52;7.07;;;3.55;;
66521;SDS011;53349;53.538;8.584;2023-11-21T13:59:19;6.03;;;2.97;;
66521;SDS011;53349;53.538;8.584;2023-11-21T14:01:46;5.88;;;2.65;;
66521;SDS011;53349;53.538;8.584;2023-11-21T14:04:11;6.60;;;2.58;;
66521;SDS011;53349;53.538;8.584;2023-11-21T14:06:39;5.60;;;2.60;;
66521;SDS011;53349;53.538;8.584;2023-11-21T14:09:04;5.85;;;2.38;;
66521;SDS011;53349;53.538;8.584;2023-11-21T14:11:30;5.07;;;2.40;;
66521;SDS011;53349;53.538;8.584;2023-11-21T14:13:56;6.33;;;2.50;;
66521;SDS011;53349;53.538;8.584;2023-11-21T14:16:23;5.57;;;2.65;;
66521;SDS011;53349;53.538;8.584;2023-11-21T14:18:53;5.83;;;2.23;;
66521;SDS011;53349;53.538;8.584;2023-11-21T14:21:19;5.28;;;2.20;;
66521;SDS011;53349;53.538;8.584;2023-11-21T14:23:46;5.33;;;2.30;;
66521;SDS011;53349;53.538;8.584;2023-11-21T14:26:28;4.72;;;2.20;;
66521;SDS011;53349;53.538;8.584;2023-11-21T14:28:53;5.97;;;2.50;;
66521;SDS011;53349;53.538;8.584;2023-11-21T14:31:21;6.13;;;2.30;;
66521;SDS011;53349;53.538;8.584;2023-11-21T14:33:56;5.80;;;2.40;;
66521;SDS011;53349;53.538;8.584;2023-11-21T14:36:24;5.43;;;2.30;;
66521;SDS011;53349;53.538;8.584;2023-11-21T14:38:50;6.87;;;2.67;;
66521;SDS011;53349;53.538;8.584;2023-11-21T14:41:16;5.87;;;2.67;;
66521;SDS011;53349;53.538;8.584;2023-11-21T14:43:47;5.50;;;2.70;;
66521;SDS011;53349;53.538;8.584;2023-11-21T14:46:13;5.03;;;2.60;;
66521;SDS011;53349;53.538;8.584;2023-11-21T14:48:38;7.10;;;2.63;;
66521;SDS011;53349;53.538;8.584;2023-11-21T14:51:03;6.23;;;2.60;;